Time;durP1;ratioP1;P1;durP2;ratioP2;P2;SDS_P1;SDS_P2;PMS_P1;PMS_P2;Temp;Humidity;BMP_temperature;BMP_pressure;BME280_temperature;BME280_humidity;BME280_pressure;Samples;Min_cycle;Max_cycle;Signal;HPM_P1;HPM_P2
2022/02/28 00:00:45;;;;;;;9.63;6.47;;;;;;;4.72;46.78;100139.31;6901817;28;20200;-83
2022/02/28 00:04:08;;;;;;;6.80;6.20;;;;;;;5.04;46.84;100158.69;6905331;28;20761;-84
2022/02/28 00:07:30;;;;;;;10.80;6.30;;;;;;;5.02;46.11;100149.94;6903743;28;20224;-85
2022/02/28 00:10:52;;;;;;;9.67;8.17;;;;;;;4.88;45.96;100085.34;6902731;28;20215;-85
2022/02/28 00:14:13;;;;;;;8.00;6.47;;;;;;;4.60;46.95;100110.19;6904105;28;20215;-84
2022/02/28 00:17:35;;;;;;;9.97;6.80;;;;;;;4.71;48.17;100155.50;6902972;28;20317;-84
2022/02/28 00:20:59;;;;;;;9.73;7.13;;;;;;;4.57;48.45;100159.38;6895056;28;20203;-84
2022/02/28 00:24:20;;;;;;;11.57;7.03;;;;;;;4.77;47.00;100152.28;6903224;28;20214;-84
2022/02/28 00:27:42;;;;;;;8.70;7.57;;;;;;;4.69;47.59;100149.44;6902523;28;20214;-84
2022/02/28 00:31:04;;;;;;;8.17;7.20;;;;;;;4.55;47.42;100131.13;6902697;28;20194;-84
2022/02/28 00:34:32;;;;;;;8.53;6.67;;;;;;;4.89;46.25;100138.66;6905205;28;20207;-85
2022/02/28 00:42:17;;;;;;;9.07;6.70;;;;;;;4.80;46.38;100155.53;6900595;28;20217;-87
2022/02/28 00:45:44;;;;;;;7.87;6.47;;;;;;;4.81;46.43;100143.84;6903668;28;20215;-85
2022/02/28 00:49:08;;;;;;;8.77;6.53;;;;;;;3.76;48.24;100139.81;6886571;28;20238;-86
2022/02/28 00:52:30;;;;;;;9.17;6.90;;;;;;;2.83;50.54;100088.25;6905440;28;20714;-86
2022/02/28 00:56:00;;;;;;;8.53;6.40;;;;;;;3.61;49.88;100129.59;6908873;28;20234;-87
2022/02/28 00:59:25;;;;;;;9.23;7.17;;;;;;;4.01;48.34;100131.41;6911223;28;20204;-86
2022/02/28 01:02:49;;;;;;;9.27;7.30;;;;;;;3.75;49.28;100150.63;6893691;28;20229;-86
2022/02/28 01:06:15;;;;;;;9.43;6.97;;;;;;;3.64;49.09;100130.19;6892591;28;20231;-88
2022/02/28 01:10:32;;;;;;;9.67;7.37;;;;;;;3.65;49.94;100147.88;6837231;28;20232;-88
2022/02/28 01:34:27;;;;;;;8.27;6.33;;;;;;;2.99;51.62;100124.16;6645659;29;20224;-87
2022/02/28 01:41:59;;;;;;;8.07;6.50;;;;;;;3.40;50.97;100161.56;6668333;29;20242;-86
2022/02/28 01:45:23;;;;;;;10.83;7.03;;;;;;;3.47;51.84;100148.56;6723946;29;20224;-87
2022/02/28 01:53:04;;;;;;;6.90;6.20;;;;;;;3.66;50.06;100136.22;6723620;29;20218;-88
2022/02/28 01:56:26;;;;;;;11.40;7.70;;;;;;;3.51;50.35;100153.53;6825459;29;20202;-88
2022/02/28 01:59:49;;;;;;;10.63;7.00;;;;;;;3.89;49.40;100139.63;6829605;28;20207;-87
2022/02/28 02:03:14;;;;;;;10.13;7.67;;;;;;;4.00;49.35;100129.72;6877270;28;20227;-86
2022/02/28 02:06:35;;;;;;;9.30;7.13;;;;;;;4.03;48.19;100133.97;6876078;28;20209;-86
2022/02/28 02:10:02;;;;;;;12.53;7.10;;;;;;;2.78;49.34;100042.53;6876223;28;20231;-86
2022/02/28 02:13:24;;;;;;;10.40;6.80;;;;;;;3.24;49.91;100126.50;6878614;28;20237;-87
2022/02/28 02:16:46;;;;;;;7.70;6.70;;;;;;;2.64;50.65;100074.75;6879521;28;20215;-87
2022/02/28 02:20:36;;;;;;;10.17;7.20;;;;;;;3.02;50.98;100097.25;6891481;28;20209;-86
2022/02/28 02:24:41;;;;;;;8.20;7.03;;;;;;;3.24;51.08;100141.66;6882716;28;20270;-85
2022/02/28 02:28:42;;;;;;;9.57;7.47;;;;;;;2.71;52.03;100146.00;6906747;28;20197;-88
2022/02/28 02:32:08;;;;;;;9.70;7.30;;;;;;;2.98;50.72;100146.47;6879272;28;20240;-88
2022/02/28 02:35:32;;;;;;;10.17;7.47;;;;;;;3.37;51.19;100145.00;6910222;28;20212;-88
2022/02/28 02:43:35;;;;;;;10.73;7.33;;;;;;;3.52;49.61;100151.69;6874907;28;20259;-87
2022/02/28 02:51:24;;;;;;;11.33;8.27;;;;;;;3.08;49.55;100104.75;6826418;29;20219;-86
2022/02/28 02:54:46;;;;;;;12.20;7.70;;;;;;;3.52;49.06;100144.56;6820564;29;20242;-86
2022/02/28 02:58:13;;;;;;;9.13;7.97;;;;;;;3.22;49.99;100139.13;6820622;29;20214;-86
2022/02/28 03:01:38;;;;;;;12.03;7.63;;;;;;;2.94;48.70;100057.09;6819890;29;20239;-86
2022/02/28 03:05:00;;;;;;;10.47;8.00;;;;;;;3.38;49.52;100144.88;6814376;29;20206;-87
2022/02/28 03:08:26;;;;;;;9.60;7.13;;;;;;;3.19;49.98;100136.69;6812179;29;20230;-88
2022/02/28 03:12:03;;;;;;;8.80;7.40;;;;;;;2.61;50.97;100086.47;6816585;29;20600;-87
2022/02/28 03:33:51;;;;;;;10.47;7.60;;;;;;;2.73;51.94;100154.72;6694159;29;20241;-89
2022/02/28 03:44:45;;;;;;;11.43;8.17;;;;;;;2.37;51.03;100091.13;6706511;29;20222;-88
2022/02/28 03:52:30;;;;;;;11.60;7.93;;;;;;;2.04;52.01;100088.47;6625268;29;20238;-88
2022/02/28 03:55:51;;;;;;;10.93;8.13;;;;;;;2.37;51.38;100116.91;6684972;29;20203;-88
2022/02/28 03:59:14;;;;;;;12.80;7.73;;;;;;;1.98;51.85;100131.53;6685006;29;20210;-88
2022/02/28 04:02:36;;;;;;;9.20;7.60;;;;;;;2.27;51.50;100132.75;6686643;29;20225;-89
2022/02/28 04:05:58;;;;;;;10.47;8.27;;;;;;;1.85;51.08;100052.81;6709884;29;20603;-88
2022/02/28 04:09:22;;;;;;;11.13;8.63;;;;;;;1.51;50.48;100033.34;6765966;29;20231;-88
2022/02/28 04:12:44;;;;;;;10.87;8.57;;;;;;;1.69;52.76;100079.75;6782193;29;20367;-89
2022/02/28 04:16:06;;;;;;;12.97;7.80;;;;;;;1.73;51.48;100043.13;6823240;29;20242;-88
2022/02/28 04:19:47;;;;;;;13.87;9.87;;;;;;;2.64;50.64;100158.13;6826421;29;20211;-89
2022/02/28 04:49:16;;;;;;;12.40;9.27;;;;;;;2.21;51.28;100124.38;6724859;29;20225;-88
2022/02/28 05:24:54;;;;;;;16.13;9.43;;;;;;;2.20;52.51;100171.41;7106198;27;20561;-76
2022/02/28 05:28:16;;;;;;;16.37;9.03;;;;;;;2.36;51.89;100160.44;7105846;27;20252;-76
2022/02/28 05:31:38;;;;;;;15.57;9.00;;;;;;;1.89;53.06;100189.88;7087599;27;20208;-76
2022/02/28 05:35:00;;;;;;;13.23;9.20;;;;;;;1.67;54.50;100153.44;7112801;27;20194;-75
2022/02/28 05:38:21;;;;;;;17.57;11.23;;;;;;;1.96;54.06;100185.78;7136274;27;20202;-76
2022/02/28 05:41:44;;;;;;;13.13;9.20;;;;;;;2.45;52.44;100173.00;7135547;27;20210;-76
2022/02/28 05:45:07;;;;;;;13.57;9.83;;;;;;;2.07;52.04;100162.72;7122595;27;20297;-76
2022/02/28 05:48:29;;;;;;;17.73;10.47;;;;;;;2.34;52.39;100184.50;7107640;27;20232;-76
2022/02/28 05:51:50;;;;;;;12.87;9.63;;;;;;;2.03;52.46;100185.22;7108325;27;20199;-76
2022/02/28 05:55:12;;;;;;;14.47;9.00;;;;;;;1.53;52.99;100132.38;7107410;27;20206;-76
2022/02/28 05:58:35;;;;;;;16.23;10.60;;;;;;;2.11;52.89;100189.91;7106969;27;20252;-75
2022/02/28 06:01:57;;;;;;;12.50;9.80;;;;;;;2.41;52.50;100168.88;7105747;27;20274;-76
2022/02/28 06:05:19;;;;;;;13.67;9.70;;;;;;;2.20;52.36;100200.69;7117512;27;20543;-76
2022/02/28 06:08:41;;;;;;;19.93;9.70;;;;;;;1.52;52.54;100098.81;7134147;27;20282;-75
2022/02/28 06:12:03;;;;;;;14.77;9.77;;;;;;;2.56;51.94;100202.31;7133839;27;20213;-75
2022/02/28 06:15:26;;;;;;;15.07;9.53;;;;;;;2.53;51.89;100213.19;7105888;27;20218;-76
2022/02/28 06:18:48;;;;;;;13.20;9.20;;;;;;;2.71;51.60;100207.25;7124596;27;20226;-75
2022/02/28 06:22:09;;;;;;;13.23;9.20;;;;;;;2.74;50.96;100192.84;7104490;27;20660;-76
2022/02/28 06:25:31;;;;;;;12.23;8.83;;;;;;;2.48;50.61;100204.72;7097066;27;20577;-77
2022/02/28 06:28:53;;;;;;;13.70;9.57;;;;;;;2.02;51.65;100206.59;7105629;27;20195;-77
2022/02/28 06:32:16;;;;;;;14.70;10.60;;;;;;;1.98;53.12;100210.44;7100816;27;20577;-77
2022/02/28 06:35:38;;;;;;;12.53;9.67;;;;;;;1.86;52.39;100176.81;7062309;27;20328;-82
2022/02/28 06:39:01;;;;;;;12.97;9.83;;;;;;;1.39;52.70;100103.34;7061059;28;20204;-82
2022/02/28 06:42:22;;;;;;;15.00;9.13;;;;;;;2.34;52.31;100215.59;7058375;28;20227;-75
2022/02/28 06:45:44;;;;;;;16.53;9.50;;;;;;;2.37;52.64;100210.03;7072295;27;20210;-76
2022/02/28 06:49:07;;;;;;;12.07;9.43;;;;;;;2.70;51.70;100220.69;7086795;27;20208;-76
2022/02/28 06:52:29;;;;;;;12.23;9.60;;;;;;;2.62;51.05;100208.00;7086134;27;20199;-75
2022/02/28 06:55:52;;;;;;;14.43;9.47;;;;;;;2.60;51.53;100201.94;7073777;27;20216;-76
2022/02/28 06:59:14;;;;;;;12.73;9.63;;;;;;;2.36;51.39;100219.81;7085575;27;20296;-75
2022/02/28 07:02:36;;;;;;;14.30;9.53;;;;;;;2.41;52.92;100216.78;7064333;27;20720;-77
2022/02/28 07:05:59;;;;;;;13.47;9.37;;;;;;;2.37;52.46;100213.53;7057929;28;20200;-75
2022/02/28 07:09:20;;;;;;;15.57;11.00;;;;;;;2.17;54.67;100216.91;7064835;27;20199;-75
2022/02/28 07:12:42;;;;;;;13.43;9.63;;;;;;;3.24;51.48;100197.63;7085797;27;20204;-77
2022/02/28 07:16:04;;;;;;;16.07;10.23;;;;;;;4.48;48.74;100210.09;7085692;27;20208;-72
2022/02/28 07:19:26;;;;;;;14.23;9.90;;;;;;;4.88;48.31;100208.28;7077973;27;20201;-77
2022/02/28 07:22:49;;;;;;;14.53;9.63;;;;;;;5.22;45.99;100167.72;7076185;27;20229;-77
2022/02/28 07:26:12;;;;;;;13.77;9.50;;;;;;;5.70;45.31;100171.28;7057965;27;20206;-77
2022/02/28 07:29:34;;;;;;;15.70;9.10;;;;;;;6.44;44.08;100199.09;7057531;28;20555;-78
2022/02/28 07:32:55;;;;;;;16.83;9.13;;;;;;;6.18;44.52;100198.88;7056451;28;20294;-75
2022/02/28 07:36:17;;;;;;;14.40;10.90;;;;;;;6.37;43.63;100206.84;7057230;28;20296;-75
2022/02/28 07:39:40;;;;;;;15.33;11.20;;;;;;;5.77;45.09;100192.97;7056385;27;20209;-75
2022/02/28 07:43:02;;;;;;;34.87;19.07;;;;;;;6.10;44.45;100141.66;7056105;28;20591;-76
2022/02/28 07:46:23;;;;;;;24.00;14.60;;;;;;;6.52;43.95;100209.91;7055793;28;20204;-75
2022/02/28 07:49:45;;;;;;;16.50;12.07;;;;;;;6.70;43.99;100202.81;7080663;27;20207;-76
2022/02/28 07:53:07;;;;;;;22.47;14.13;;;;;;;6.82;43.52;100205.16;7084254;27;20204;-76
2022/02/28 07:56:30;;;;;;;18.83;13.33;;;;;;;6.84;43.48;100211.22;7070229;27;20197;-74
2022/02/28 07:59:51;;;;;;;19.27;13.83;;;;;;;7.05;42.73;100186.84;7054701;28;20203;-74
2022/02/28 08:03:13;;;;;;;19.73;13.03;;;;;;;7.32;42.87;100165.38;7055625;28;20243;-74
2022/02/28 08:06:37;;;;;;;20.70;12.83;;;;;;;7.79;41.28;100212.50;7055226;28;20208;-74
2022/02/28 08:09:58;;;;;;;16.23;12.50;;;;;;;7.77;41.33;100183.09;7054584;28;20207;-74
2022/02/28 08:13:22;;;;;;;17.80;12.67;;;;;;;7.87;40.87;100143.59;7054662;28;20196;-74
2022/02/28 08:16:43;;;;;;;16.77;12.17;;;;;;;8.33;40.52;100220.38;7054046;28;20214;-74
2022/02/28 08:20:06;;;;;;;18.83;12.80;;;;;;;8.41;39.84;100116.47;7054346;28;20203;-74
2022/02/28 08:23:28;;;;;;;16.33;12.00;;;;;;;9.68;38.67;100222.91;7054205;28;20598;-74
2022/02/28 08:26:50;;;;;;;16.50;12.70;;;;;;;9.56;37.86;100130.81;7054047;28;20200;-74
2022/02/28 08:30:13;;;;;;;16.70;12.20;;;;;;;10.30;37.05;100228.56;7053928;28;20204;-74
2022/02/28 08:33:35;;;;;;;11.73;9.10;;;;;;;9.07;36.85;100110.19;7053391;28;20220;-74
2022/02/28 08:36:56;;;;;;;13.33;8.80;;;;;;;9.16;36.77;100221.38;7052657;28;20658;-73
2022/02/28 08:40:18;;;;;;;11.67;8.77;;;;;;;9.19;35.34;100145.69;7053988;28;20211;-74
2022/02/28 08:43:40;;;;;;;12.13;9.33;;;;;;;9.27;36.47;100232.69;7052975;28;20226;-74
2022/02/28 08:47:03;;;;;;;12.00;9.50;;;;;;;8.54;36.89;100137.53;7053716;28;20208;-74
2022/02/28 08:50:25;;;;;;;13.30;8.63;;;;;;;9.98;34.98;100131.50;7053665;28;20207;-74
2022/02/28 08:53:46;;;;;;;12.13;8.90;;;;;;;9.28;36.44;100230.84;7054407;28;20200;-74
2022/02/28 08:57:08;;;;;;;11.50;9.00;;;;;;;10.22;35.02;100136.06;7053980;28;20209;-74
2022/02/28 09:00:30;;;;;;;10.50;9.17;;;;;;;11.13;32.92;100176.78;7069697;27;20538;-75
2022/02/28 09:03:53;;;;;;;12.07;9.13;;;;;;;12.52;32.15;100224.13;7055608;27;20225;-75
2022/02/28 09:07:15;;;;;;;13.37;9.40;;;;;;;11.29;33.08;100224.44;7065229;27;20205;-74
2022/02/28 09:10:36;;;;;;;10.93;8.50;;;;;;;11.28;32.97;100222.78;7062363;27;20204;-75
2022/02/28 09:13:58;;;;;;;10.83;8.87;;;;;;;10.19;33.69;100142.63;7081927;27;20204;-76
2022/02/28 09:17:20;;;;;;;12.73;9.40;;;;;;;10.01;34.59;100214.69;7065141;27;20209;-75
2022/02/28 09:20:43;;;;;;;14.37;9.17;;;;;;;11.76;32.17;100225.25;7076131;27;20264;-75
2022/02/28 09:24:05;;;;;;;12.20;9.43;;;;;;;10.70;33.01;100161.06;7081498;27;20226;-75
2022/02/28 09:27:27;;;;;;;13.40;9.83;;;;;;;11.14;32.42;100121.75;7081674;27;20207;-75
2022/02/28 09:30:49;;;;;;;13.00;9.53;;;;;;;10.01;34.83;100209.31;7081913;27;20203;-74
2022/02/28 09:34:11;;;;;;;13.90;9.40;;;;;;;9.06;35.45;100029.66;7079676;27;20210;-78
2022/02/28 09:37:34;;;;;;;233.90;91.30;;;;;;;9.64;35.75;100175.75;7067401;27;20562;-75
2022/02/28 09:40:56;;;;;;;12.80;10.40;;;;;;;9.24;35.45;100098.47;7053785;27;20211;-78
2022/02/28 09:44:18;;;;;;;12.77;10.00;;;;;;;9.27;35.96;100133.13;7053492;28;20216;-75
2022/02/28 09:47:40;;;;;;;24.63;13.80;;;;;;;10.56;35.67;100123.19;7053759;28;20669;-76
2022/02/28 09:51:02;;;;;;;15.77;10.77;;;;;;;9.99;35.05;100205.09;7055398;28;20205;-78
2022/02/28 09:54:25;;;;;;;11.57;9.43;;;;;;;9.67;35.55;100164.63;7054447;28;20197;-79
2022/02/28 09:57:48;;;;;;;13.90;9.97;;;;;;;10.60;33.38;100197.34;7053662;28;20205;-82
2022/02/28 10:01:13;;;;;;;13.57;9.97;;;;;;;11.01;34.15;100199.75;7055343;28;20204;-78
2022/02/28 10:04:35;;;;;;;14.40;10.33;;;;;;;10.63;33.96;100195.13;7054730;27;20212;-77
2022/02/28 10:07:59;;;;;;;13.73;10.63;;;;;;;10.88;33.89;100206.72;7055134;28;20208;-77
2022/02/28 10:11:27;;;;;;;15.23;11.50;;;;;;;12.20;31.30;100210.06;7057704;28;20204;-76
2022/02/28 10:14:49;;;;;;;10.50;8.77;;;;;;;11.09;32.09;100118.75;7070511;27;20210;-76
2022/02/28 10:18:11;;;;;;;13.13;9.47;;;;;;;11.99;29.89;100205.31;7078167;27;20196;-76
2022/02/28 10:21:43;;;;;;;10.10;7.67;;;;;;;12.45;29.35;100196.16;7078235;27;20240;-76
2022/02/28 10:25:06;;;;;;;11.73;8.20;;;;;;;12.86;29.02;100194.72;7075829;27;20207;-76
2022/02/28 10:28:29;;;;;;;10.33;8.63;;;;;;;13.08;28.39;100204.66;7071369;27;20211;-76
2022/02/28 10:31:58;;;;;;;11.17;8.43;;;;;;;13.40;28.71;100206.13;7065202;27;20213;-76
2022/02/28 10:39:04;;;;;;;10.57;8.13;;;;;;;12.83;28.07;100197.81;7057131;28;20276;-76
2022/02/28 10:42:26;;;;;;;11.00;8.20;;;;;;;12.90;28.46;100187.91;7057744;28;20208;-76
2022/02/28 10:45:49;;;;;;;13.20;8.67;;;;;;;12.46;27.90;100113.97;7056531;27;20239;-76
2022/02/28 10:49:16;;;;;;;11.83;8.10;;;;;;;12.96;28.62;100181.78;7085810;27;20196;-77
2022/02/28 10:52:55;;;;;;;12.87;8.67;;;;;;;13.04;27.83;100178.13;7061142;27;20203;-77
2022/02/28 10:56:16;;;;;;;12.43;10.50;;;;;;;11.89;27.95;100122.81;7080216;27;20201;-77
2022/02/28 10:59:41;;;;;;;13.63;10.17;;;;;;;11.14;30.01;100116.38;7077814;27;20203;-77
2022/02/28 11:03:05;;;;;;;10.83;8.27;;;;;;;12.88;29.04;100146.66;7069496;27;20200;-77
2022/02/28 11:06:27;;;;;;;13.50;8.73;;;;;;;13.81;26.56;100180.13;7057272;28;20212;-77
2022/02/28 11:09:48;;;;;;;13.23;8.50;;;;;;;13.90;27.42;100173.53;7057093;28;20202;-77
2022/02/28 11:13:10;;;;;;;14.77;8.43;;;;;;;13.77;27.13;100159.84;7057207;28;20218;-76
2022/02/28 11:16:33;;;;;;;14.03;9.60;;;;;;;13.61;26.71;100057.94;7056984;28;20541;-76
2022/02/28 11:19:59;;;;;;;11.57;8.33;;;;;;;14.28;27.02;100150.56;7057605;28;20213;-77
2022/02/28 11:23:21;;;;;;;12.37;8.80;;;;;;;14.13;26.04;100141.63;7056769;28;20286;-77
2022/02/28 11:26:42;;;;;;;10.70;8.40;;;;;;;13.41;26.84;100148.19;7055968;27;20219;-77
2022/02/28 11:30:08;;;;;;;10.67;8.13;;;;;;;12.74;27.20;100014.03;7057212;28;20615;-77
2022/02/28 11:33:30;;;;;;;11.50;8.90;;;;;;;12.22;27.75;100064.72;7057508;28;20540;-77
2022/02/28 11:36:58;;;;;;;10.53;8.93;;;;;;;11.93;29.14;100141.16;7057087;28;20756;-77
2022/02/28 11:40:21;;;;;;;13.70;9.70;;;;;;;11.44;29.92;100125.44;7055832;28;20200;-76
2022/02/28 11:43:46;;;;;;;13.27;8.70;;;;;;;11.10;30.01;100146.59;7056323;28;20220;-76
2022/02/28 11:47:13;;;;;;;10.47;8.83;;;;;;;12.95;27.49;100054.69;7055579;27;20207;-77
2022/02/28 11:50:49;;;;;;;8.53;7.60;;;;;;;13.84;27.09;100120.94;7056120;28;20233;-77
2022/02/28 11:54:26;;;;;;;9.43;7.90;;;;;;;14.48;25.20;100062.84;7054479;28;20208;-77
2022/02/28 11:57:49;;;;;;;8.10;7.30;;;;;;;15.30;24.66;100102.53;7054780;28;20237;-77
2022/02/28 12:01:11;;;;;;;11.87;8.03;;;;;;;15.55;24.72;100100.09;7057109;27;20260;-76
2022/02/28 12:04:43;;;;;;;13.43;9.10;;;;;;;13.38;25.07;100042.91;7075300;27;20227;-76
2022/02/28 12:08:05;;;;;;;14.77;8.23;;;;;;;12.66;27.14;100111.53;7054702;28;20238;-76
2022/02/28 12:11:32;;;;;;;12.67;8.43;;;;;;;11.79;28.10;100078.97;7071260;27;20230;-86
2022/02/28 12:15:13;;;;;;;11.17;8.53;;;;;;;12.66;27.43;100108.84;7068806;27;20223;-76
2022/02/28 12:18:35;;;;;;;11.80;8.50;;;;;;;12.28;27.83;100031.53;7065943;27;20708;-77
2022/02/28 12:22:01;;;;;;;11.33;8.10;;;;;;;12.74;26.59;100008.63;7083851;27;20684;-76
2022/02/28 12:25:30;;;;;;;9.97;7.80;;;;;;;13.42;25.26;100091.13;7071153;27;20701;-76
2022/02/28 12:28:54;;;;;;;9.40;7.77;;;;;;;12.71;26.21;100082.91;7055249;27;20217;-75
2022/02/28 12:32:48;;;;;;;12.50;7.63;;;;;;;13.22;26.13;100090.03;7063552;27;20228;-75
2022/02/28 12:36:11;;;;;;;9.60;7.93;;;;;;;12.31;26.50;100086.06;7068427;27;20216;-76
2022/02/28 12:39:33;;;;;;;8.97;7.23;;;;;;;13.10;25.75;100061.78;7082642;27;20253;-75
2022/02/28 12:42:55;;;;;;;10.20;7.70;;;;;;;13.11;25.86;100076.97;7075222;27;20216;-75
2022/02/28 12:46:20;;;;;;;9.53;7.90;;;;;;;13.25;25.37;100035.50;7063973;27;20229;-75
2022/02/28 12:49:42;;;;;;;9.13;7.90;;;;;;;12.32;25.95;100035.50;7070757;27;20257;-75
2022/02/28 12:53:07;;;;;;;10.83;7.47;;;;;;;12.75;26.66;100065.25;7082972;27;20211;-76
2022/02/28 12:56:29;;;;;;;10.07;7.57;;;;;;;13.67;24.87;100050.91;7082286;27;20216;-76
2022/02/28 12:59:56;;;;;;;9.17;7.00;;;;;;;15.05;23.93;100051.66;7062455;27;20203;-75
2022/02/28 13:03:19;;;;;;;10.27;8.03;;;;;;;14.56;24.06;100040.13;7055358;27;20629;-75
2022/02/28 13:06:43;;;;;;;9.80;8.07;;;;;;;13.85;24.31;100025.00;7054711;28;20254;-78
2022/02/28 13:10:11;;;;;;;11.13;8.03;;;;;;;13.16;24.63;99951.88;7075128;27;20651;-75
2022/02/28 13:13:33;;;;;;;9.87;7.53;;;;;;;14.08;24.09;100046.44;7067605;27;20216;-75
2022/02/28 13:16:57;;;;;;;9.93;7.97;;;;;;;13.84;24.21;100022.47;7079669;27;20529;-77
2022/02/28 13:20:20;;;;;;;9.77;7.63;;;;;;;14.25;24.20;99951.06;7065140;27;20544;-76
2022/02/28 13:23:41;;;;;;;8.17;6.93;;;;;;;14.97;22.52;100027.34;7070873;28;20669;-75
2022/02/28 13:27:04;;;;;;;9.40;6.97;;;;;;;14.55;23.04;99959.72;7076485;28;20198;-75
2022/02/28 13:30:34;;;;;;;9.93;7.63;;;;;;;14.65;22.90;99998.22;7054194;28;20209;-76
2022/02/28 13:33:56;;;;;;;7.70;6.63;;;;;;;13.72;24.05;99978.81;7054204;28;20323;-75
2022/02/28 13:37:20;;;;;;;8.53;6.77;;;;;;;15.64;22.52;100031.72;7054043;28;20260;-75
2022/02/28 13:40:42;;;;;;;9.10;6.60;;;;;;;15.46;21.40;100027.97;7054977;28;20206;-75
2022/02/28 13:44:09;;;;;;;7.73;6.43;;;;;;;13.83;22.43;99932.19;7068169;27;20227;-75
2022/02/28 13:47:36;;;;;;;7.73;6.07;;;;;;;14.46;22.39;100016.06;7073290;27;20190;-76
2022/02/28 13:51:00;;;;;;;8.60;6.30;;;;;;;14.35;22.80;100027.50;7065391;27;20230;-76
2022/02/28 13:54:23;;;;;;;8.57;6.77;;;;;;;13.51;23.04;99961.78;7059547;28;20198;-76
2022/02/28 13:57:51;;;;;;;8.27;6.90;;;;;;;14.80;21.69;100032.31;7060256;27;20209;-76
2022/02/28 14:01:13;;;;;;;9.50;6.77;;;;;;;14.98;22.28;100002.72;7073166;27;20647;-76
2022/02/28 14:04:38;;;;;;;9.17;7.03;;;;;;;14.48;22.05;99929.03;7086674;27;20228;-76
2022/02/28 14:08:06;;;;;;;7.80;7.00;;;;;;;14.79;22.12;100024.34;7076580;27;20216;-76
2022/02/28 14:11:31;;;;;;;10.93;7.67;;;;;;;12.84;23.77;99904.44;7085585;27;20213;-76
2022/02/28 14:15:04;;;;;;;10.90;7.83;;;;;;;13.75;23.81;99916.06;7078642;27;20649;-76
2022/02/28 14:18:25;;;;;;;11.27;7.60;;;;;;;14.45;23.94;100013.56;7084263;27;20550;-77
2022/02/28 14:21:49;;;;;;;7.50;6.73;;;;;;;14.95;23.09;100008.56;7086084;27;20791;-75
2022/02/28 14:25:13;;;;;;;7.97;6.80;;;;;;;13.99;23.04;100017.81;7085359;27;20247;-76
2022/02/28 14:28:42;;;;;;;9.30;6.77;;;;;;;14.74;22.93;100000.53;7085321;27;20254;-76
2022/02/28 14:32:04;;;;;;;8.23;6.77;;;;;;;14.59;22.52;99874.16;7085341;27;20214;-76
2022/02/28 14:35:26;;;;;;;8.13;7.00;;;;;;;15.29;21.73;99910.59;7079511;27;20207;-78
2022/02/28 14:38:48;;;;;;;9.53;6.93;;;;;;;15.39;21.84;100016.25;7086252;27;20206;-75
2022/02/28 14:42:09;;;;;;;9.17;7.13;;;;;;;15.43;21.86;99903.34;7076150;27;20201;-74
2022/02/28 14:45:33;;;;;;;9.47;6.97;;;;;;;15.80;21.71;100006.03;7059337;27;20227;-75
2022/02/28 14:48:54;;;;;;;9.17;7.20;;;;;;;15.86;21.60;100000.56;7085591;27;20253;-75
2022/02/28 14:52:16;;;;;;;8.40;6.83;;;;;;;15.58;21.65;99999.13;7085631;27;20223;-76
2022/02/28 14:55:38;;;;;;;10.57;7.17;;;;;;;15.50;21.67;99977.56;7075211;27;20207;-76
2022/02/28 14:59:00;;;;;;;7.80;6.83;;;;;;;16.03;22.16;99982.78;7057427;28;20206;-76
2022/02/28 15:02:23;;;;;;;8.90;6.93;;;;;;;14.96;21.88;99904.31;7057427;28;20209;-76
2022/02/28 15:05:44;;;;;;;9.53;7.17;;;;;;;14.56;23.02;99898.97;7057088;27;20230;-77
2022/02/28 15:09:06;;;;;;;8.97;7.33;;;;;;;14.94;22.59;99993.31;7081780;27;20205;-76
2022/02/28 15:12:28;;;;;;;11.20;6.73;;;;;;;15.15;23.39;99985.00;7085375;27;20294;-76
2022/02/28 15:15:49;;;;;;;9.90;7.40;;;;;;;14.56;23.13;99909.84;7085583;27;20243;-75
2022/02/28 15:19:13;;;;;;;8.13;7.10;;;;;;;13.87;22.97;99868.41;7074601;27;20648;-77
2022/02/28 15:22:34;;;;;;;8.80;7.20;;;;;;;15.58;22.85;99983.63;7057243;27;20642;-76
2022/02/28 15:25:56;;;;;;;8.23;7.43;;;;;;;15.18;21.98;99973.75;7059455;27;20235;-75
2022/02/28 15:29:18;;;;;;;9.83;7.17;;;;;;;14.17;23.05;99970.16;7082067;27;20200;-75
2022/02/28 15:32:40;;;;;;;8.10;7.30;;;;;;;14.73;23.44;99973.59;7084488;27;20673;-76
2022/02/28 15:36:04;;;;;;;9.00;7.30;;;;;;;14.96;22.10;99933.34;7084824;27;20206;-75
2022/02/28 15:39:26;;;;;;;8.10;6.67;;;;;;;15.23;22.44;99951.38;7065632;27;20207;-75
2022/02/28 15:42:48;;;;;;;8.30;7.00;;;;;;;15.61;22.08;99968.78;7068377;27;20214;-75
2022/02/28 15:46:10;;;;;;;7.97;7.17;;;;;;;15.05;22.63;99885.94;7059360;27;20551;-75
2022/02/28 15:49:32;;;;;;;9.90;6.77;;;;;;;15.23;23.10;99957.63;7055674;28;20227;-75
2022/02/28 15:52:55;;;;;;;8.70;6.50;;;;;;;15.04;22.09;99857.13;7061334;27;20531;-75
2022/02/28 15:56:18;;;;;;;9.00;7.87;;;;;;;14.46;23.03;99893.13;7084086;27;20234;-75
2022/02/28 15:59:40;;;;;;;10.07;7.13;;;;;;;14.91;22.98;99968.41;7061328;27;20227;-75
2022/02/28 16:03:01;;;;;;;8.10;6.77;;;;;;;14.47;22.55;99895.63;7055815;28;20224;-75
2022/02/28 16:06:23;;;;;;;10.67;7.17;;;;;;;13.98;23.71;99894.13;7055028;28;20231;-75
2022/02/28 16:09:47;;;;;;;8.57;6.97;;;;;;;13.76;23.98;99898.78;7056551;27;20648;-76
2022/02/28 16:13:10;;;;;;;10.73;7.93;;;;;;;14.67;24.02;99983.41;7055616;28;20240;-75
2022/02/28 16:16:32;;;;;;;10.07;7.93;;;;;;;13.96;24.74;99959.41;7056933;27;20207;-75
2022/02/28 16:19:54;;;;;;;8.50;7.60;;;;;;;13.16;25.32;99882.28;7055122;28;20214;-75
2022/02/28 16:23:15;;;;;;;9.73;7.43;;;;;;;14.03;25.40;99945.84;7055145;28;20221;-75
2022/02/28 16:26:38;;;;;;;8.27;7.33;;;;;;;13.93;25.82;99977.94;7059554;27;20242;-75
2022/02/28 16:30:00;;;;;;;10.33;7.80;;;;;;;14.07;25.62;99977.81;7065657;27;20210;-75
2022/02/28 16:33:22;;;;;;;11.50;7.73;;;;;;;13.80;25.52;99956.97;7054628;27;20200;-74
2022/02/28 16:36:44;;;;;;;12.50;7.97;;;;;;;13.21;26.07;99904.19;7054799;27;20218;-74
2022/02/28 16:40:08;;;;;;;12.17;7.50;;;;;;;13.26;25.99;99907.16;7079612;27;20216;-74
2022/02/28 16:43:31;;;;;;;9.27;7.63;;;;;;;13.57;26.21;99985.38;7081593;27;20213;-74
2022/02/28 16:46:52;;;;;;;11.07;7.90;;;;;;;13.63;25.82;99998.16;7081761;27;20234;-74
2022/02/28 16:50:14;;;;;;;10.97;8.17;;;;;;;13.55;26.13;99990.13;7081293;27;20372;-74
2022/02/28 16:53:36;;;;;;;10.30;7.53;;;;;;;13.65;26.14;99994.19;7081593;27;20219;-74
2022/02/28 16:56:58;;;;;;;10.07;7.37;;;;;;;12.79;26.02;99849.19;7081986;27;20203;-74
2022/02/28 17:00:21;;;;;;;8.83;7.70;;;;;;;13.00;26.50;99879.88;7081141;27;20209;-74
2022/02/28 17:03:42;;;;;;;12.53;7.90;;;;;;;13.02;27.45;99991.50;7081464;27;20201;-74
2022/02/28 17:07:05;;;;;;;11.00;8.53;;;;;;;13.07;27.50;99974.66;7081616;27;20331;-74
2022/02/28 17:10:27;;;;;;;9.40;8.10;;;;;;;13.22;27.51;99997.13;7081135;27;20207;-74
2022/02/28 17:13:48;;;;;;;11.67;7.93;;;;;;;12.96;27.91;99994.97;7065697;27;20227;-74
2022/02/28 17:17:14;;;;;;;10.60;7.93;;;;;;;12.27;28.31;99957.66;7052678;28;20202;-74
2022/02/28 17:20:38;;;;;;;11.63;8.07;;;;;;;12.36;28.09;100001.66;7052219;28;20697;-74
2022/02/28 17:24:01;;;;;;;12.13;8.07;;;;;;;11.51;27.37;99899.56;7052889;28;20611;-74
2022/02/28 17:27:23;;;;;;;10.10;7.40;;;;;;;11.46;27.52;99910.09;7052457;28;20231;-75
2022/02/28 17:30:45;;;;;;;11.23;7.97;;;;;;;12.07;27.31;99980.91;7052450;28;20684;-75
2022/02/28 17:34:10;;;;;;;16.53;11.43;;;;;;;12.06;27.18;99991.88;7052917;28;20286;-74
2022/02/28 17:37:31;;;;;;;10.40;9.07;;;;;;;11.71;27.43;99915.09;7052593;28;20577;-75
2022/02/28 17:40:53;;;;;;;10.33;7.57;;;;;;;12.01;27.15;100024.03;7052413;28;20220;-74
2022/02/28 17:44:15;;;;;;;9.10;7.47;;;;;;;12.16;27.28;100011.38;7052909;28;20208;-75
2022/02/28 17:47:37;;;;;;;9.27;7.60;;;;;;;11.79;27.17;99979.84;7052371;28;20584;-74
2022/02/28 17:51:00;;;;;;;10.37;9.10;;;;;;;12.26;27.69;100001.09;7052257;28;20274;-74
2022/02/28 17:54:22;;;;;;;16.23;11.97;;;;;;;12.00;27.59;100022.34;7052282;28;20226;-74
2022/02/28 17:57:44;;;;;;;56.17;29.97;;;;;;;11.71;28.16;99931.28;7052505;28;20204;-74
2022/02/28 18:01:05;;;;;;;48.30;20.13;;;;;;;11.75;28.36;99919.06;7052167;28;20201;-74